createdAt,value
2016-07-03T10:16:49.842Z,1062.61
2016-07-03T10:17:49.842Z,1060.44
2016-07-03T10:18:49.848Z,1057.53
2016-07-03T10:19:49.829Z,1054.38
2016-07-03T10:20:49.836Z,1050.01
2016-07-03T10:21:49.831Z,1044.36
2016-07-03T10:22:49.863Z,1038.8
2016-07-03T10:23:49.830Z,1036.06
2016-07-03T10:24:50.112Z,1034.87
2016-07-03T10:25:49.832Z,1036.4
2016-07-03T10:26:49.861Z,1040.71
2016-07-03T10:27:49.858Z,1045.69
2016-07-03T10:28:49.844Z,1050.71
2016-07-03T10:29:49.835Z,1054.73
2016-07-03T10:30:49.836Z,1055.71
2016-07-03T10:31:49.851Z,1056.55
2016-07-03T10:32:49.847Z,1055.91
2016-07-03T10:33:49.849Z,1053.35
2016-07-03T10:34:49.843Z,1048.51
2016-07-03T10:35:49.850Z,1042.22
2016-07-03T10:36:49.855Z,1039.36
2016-07-03T10:37:49.849Z,1040.38
2016-07-03T10:38:49.854Z,1044.76
2016-07-03T10:39:49.851Z,1047.03
2016-07-03T10:40:49.915Z,1049.38
2016-07-03T10:41:49.947Z,1052.01
2016-07-03T10:42:49.848Z,1052.47
2016-07-03T10:43:49.865Z,1052.79
2016-07-03T10:44:49.854Z,1051.13
2016-07-03T10:45:49.861Z,1048.67
2016-07-03T10:46:49.979Z,1047.05
2016-07-03T10:47:49.874Z,1050.8
2016-07-03T10:48:49.860Z,1055.64
2016-07-03T10:49:49.873Z,1061.11
2016-07-03T10:50:49.857Z,1065.93
2016-07-03T10:51:50.893Z,1071.78
2016-07-03T10:52:49.884Z,1077.23
2016-07-03T10:53:49.870Z,1079.54
2016-07-03T10:54:49.860Z,1077.62
2016-07-03T10:55:49.864Z,1074.19
2016-07-03T10:56:49.856Z,1068.93
2016-07-03T10:57:49.877Z,1064.87
2016-07-03T10:58:49.875Z,1064.39
2016-07-03T10:59:49.866Z,1066.8
2016-07-03T11:00:49.908Z,1069.78
2016-07-03T11:01:49.875Z,1073.96
2016-07-03T11:02:49.873Z,1073.62
2016-07-03T11:03:49.907Z,1071.57
2016-07-03T11:04:49.937Z,1068.21
2016-07-03T11:05:49.981Z,1067.32
2016-07-03T11:06:49.875Z,1065.98
2016-07-03T11:07:49.886Z,1061.46
2016-07-03T11:08:49.877Z,1057.67
2016-07-03T11:09:49.943Z,1054.76
2016-07-03T11:10:49.905Z,1054.32
2016-07-03T11:11:49.892Z,1055.16
2016-07-03T11:12:49.885Z,1054.56
2016-07-03T11:13:49.981Z,1052.21
2016-07-03T11:14:50.031Z,1048.98
2016-07-03T11:15:49.884Z,1047.34
2016-07-03T11:16:49.898Z,1043.28
2016-07-03T11:17:49.887Z,1038.32
2016-07-03T11:18:49.891Z,1033.04
2016-07-03T11:19:49.895Z,1027.11
2016-07-03T11:20:49.921Z,1023.79
2016-07-03T11:21:49.919Z,1021.48
2016-07-03T11:22:49.891Z,1019.7
2016-07-03T11:23:49.892Z,1017.21
2016-07-03T11:24:49.981Z,1013.47
2016-07-03T11:25:49.886Z,1009.8
2016-07-03T11:26:49.967Z,1006.52
2016-07-03T11:27:49.883Z,1002.88
2016-07-03T11:28:49.907Z,1000.76
2016-07-03T11:29:49.904Z,999.35
2016-07-03T11:30:49.987Z,1001.61
2016-07-03T11:31:49.938Z,1007.18
2016-07-03T11:32:49.914Z,1011.7
2016-07-03T11:33:49.894Z,1015.85
2016-07-03T11:34:49.905Z,1018.98
2016-07-03T11:35:49.922Z,1021.75
2016-07-03T11:36:49.911Z,1026.78
2016-07-03T11:37:49.917Z,1029.29
2016-07-03T11:38:49.997Z,1029.85
2016-07-03T11:39:49.916Z,1030.89
2016-07-03T11:40:49.912Z,1033.27
2016-07-03T11:41:49.907Z,1035.4
2016-07-03T11:42:49.911Z,1036.85
2016-07-03T11:43:49.911Z,1036.49
2016-07-03T11:44:49.917Z,1031.7
2016-07-03T11:45:49.917Z,1024.86
2016-07-03T11:46:50.080Z,1021.15
2016-07-03T11:47:50.001Z,1015.28
2016-07-03T11:48:49.967Z,1010.82
2016-07-03T11:49:49.922Z,1008.51
2016-07-03T11:50:49.921Z,1004.51
2016-07-03T11:51:50.524Z,1002.18
2016-07-03T11:52:49.927Z,1004.3
2016-07-03T11:53:49.954Z,1007.06
2016-07-03T11:54:49.982Z,1007.44
2016-07-03T11:55:49.987Z,1006.23
2016-07-03T11:56:49.943Z,1005.93
2016-07-03T11:57:49.931Z,1006.63
2016-07-03T11:58:49.964Z,1008.86
2016-07-03T11:59:50.656Z,1011.76
2016-07-03T12:00:49.948Z,1017.39
2016-07-03T12:01:49.956Z,1022.36
2016-07-03T12:02:49.942Z,1024.68
2016-07-03T12:03:49.944Z,1028.09
2016-07-03T12:04:49.951Z,1033.64
2016-07-03T12:05:49.935Z,1042.3
2016-07-03T12:06:49.961Z,1052.97
2016-07-03T12:07:49.963Z,1061.84
2016-07-03T12:08:49.966Z,1069.84
2016-07-03T12:09:49.956Z,1078.91
2016-07-03T12:10:49.974Z,1088.02
2016-07-03T12:11:49.934Z,1095.69
2016-07-03T12:12:49.931Z,1104.01
2016-07-03T12:13:50.034Z,1111.24
2016-07-03T12:14:49.943Z,1118.9
2016-07-03T12:15:49.947Z,1124.21
2016-07-03T12:16:49.949Z,1127.25
2016-07-03T12:17:49.981Z,1129.85
2016-07-03T12:18:49.971Z,1131.96
2016-07-03T12:19:49.946Z,1132.61
2016-07-03T12:20:50.007Z,1131.66
2016-07-03T12:21:49.953Z,1130.21
2016-07-03T12:22:50.087Z,1128.48
2016-07-03T12:23:50.529Z,1126.94
2016-07-03T12:24:50.034Z,1125.71
2016-07-03T12:25:49.947Z,1123.61
2016-07-03T12:26:50.116Z,1121.94
2016-07-03T12:27:50.077Z,1122.16
2016-07-03T12:28:50.047Z,1126.13
2016-07-03T12:29:50.004Z,1131.41
2016-07-03T12:30:49.963Z,1134.92
2016-07-03T12:31:49.990Z,1136.55
2016-07-03T12:32:49.963Z,1138.2
2016-07-03T12:33:49.970Z,1139.93
2016-07-03T12:34:50.080Z,1139.96
2016-07-03T12:35:50.364Z,1137.49
2016-07-03T12:36:50.039Z,1134.54
2016-07-03T12:37:50.002Z,1131.54
2016-07-03T12:38:49.979Z,1128.84
2016-07-03T12:39:49.963Z,1126.39
2016-07-03T12:40:50.006Z,1124.56
2016-07-03T12:41:49.980Z,1123.23
2016-07-03T12:42:49.970Z,1122.31
2016-07-03T12:43:49.977Z,1122.22
2016-07-03T12:44:49.973Z,1120.67
2016-07-03T12:45:49.975Z,1118.55
2016-07-03T12:46:49.981Z,1118.63
2016-07-03T12:47:50.003Z,1120.87
2016-07-03T12:48:50.005Z,1123.74
2016-07-03T12:49:49.988Z,1126.18
2016-07-03T12:50:49.973Z,1127.95
2016-07-03T12:51:49.970Z,1129.45
2016-07-03T12:52:50.006Z,1131.2
2016-07-03T12:53:49.974Z,1132.94
2016-07-03T12:54:49.977Z,1133.72
2016-07-03T12:55:49.990Z,1134.54
2016-07-03T12:56:50.022Z,1136.68
2016-07-03T12:57:50.021Z,1138.83
2016-07-03T12:58:50.045Z,1140.01
2016-07-03T12:59:50.051Z,1141.09
2016-07-03T13:00:50.066Z,1142.41
2016-07-03T13:01:50.010Z,1143.01
2016-07-03T13:02:50.007Z,1142.82
2016-07-03T13:03:49.997Z,1141.88
2016-07-03T13:04:50.152Z,1139.79
2016-07-03T13:05:50.340Z,1136.6
2016-07-03T13:06:49.997Z,1132.85
2016-07-03T13:07:50.015Z,1128.01
2016-07-03T13:08:50.007Z,1123.82
2016-07-03T13:09:50.027Z,1119.95
2016-07-03T13:10:50.015Z,1116.98
2016-07-03T13:11:50.068Z,1114.96
2016-07-03T13:12:49.987Z,1113.28
2016-07-03T13:13:50.037Z,1113
2016-07-03T13:14:49.996Z,1112.9
2016-07-03T13:15:50.057Z,1113.82
2016-07-03T13:16:50.067Z,1115.18
2016-07-03T13:17:50.057Z,1116.69
2016-07-03T13:18:49.995Z,1118.25
2016-07-03T13:19:50.281Z,1119.22
2016-07-03T13:20:49.998Z,1120.18
2016-07-03T13:21:50.021Z,1121.25
2016-07-03T13:22:50.026Z,1122.17
2016-07-03T13:23:50.010Z,1122.99
2016-07-03T13:24:50.009Z,1124.16
2016-07-03T13:25:50.016Z,1124.72
2016-07-03T13:26:50.013Z,1125.33
2016-07-03T13:27:50.007Z,1125.52
2016-07-03T13:28:50.009Z,1125.68
2016-07-03T13:29:50.013Z,1126.17
2016-07-03T13:30:50.160Z,1126.48
2016-07-03T13:31:53.369Z,1127.01
2016-07-03T13:32:50.022Z,1127.32
2016-07-03T13:33:50.041Z,1126.89
2016-07-03T13:34:50.070Z,1125.95
2016-07-03T13:35:50.024Z,1124.52
2016-07-03T13:36:50.036Z,1123.45
2016-07-03T13:37:50.350Z,1122.52
2016-07-03T13:38:50.082Z,1120.91
2016-07-03T13:39:50.145Z,1119.29
2016-07-03T13:40:50.041Z,1117.29
2016-07-03T13:41:50.047Z,1114.5
2016-07-03T13:42:50.031Z,1112.08
2016-07-03T13:43:50.037Z,1109.64
2016-07-03T13:44:50.072Z,1107.04
2016-07-03T13:45:50.043Z,1105.18
2016-07-03T13:46:50.035Z,1104.2
2016-07-03T13:47:50.054Z,1103.13
2016-07-03T13:48:50.035Z,1101.41
2016-07-03T13:49:50.043Z,1100.58
2016-07-03T13:50:50.097Z,1099.32
2016-07-03T13:51:50.053Z,1098.81
2016-07-03T13:52:50.086Z,1099.67
2016-07-03T13:53:50.061Z,1101.16
2016-07-03T13:54:50.054Z,1103.24
2016-07-03T13:55:50.053Z,1105.06
2016-07-03T13:56:50.040Z,1106.68
2016-07-03T13:57:50.114Z,1108.94
2016-07-03T13:58:50.038Z,1110.89
2016-07-03T13:59:50.071Z,1112.74
2016-07-03T14:00:50.258Z,1114.67
2016-07-03T14:01:50.038Z,1116.82
2016-07-03T14:02:50.048Z,1119.81
2016-07-03T14:03:50.045Z,1122.81
2016-07-03T14:04:50.082Z,1125.34
2016-07-03T14:05:50.053Z,1127.85
2016-07-03T14:06:50.052Z,1129.75
2016-07-03T14:07:50.054Z,1131.45
2016-07-03T14:08:50.059Z,1133.05
2016-07-03T14:09:50.052Z,1134.49
2016-07-03T14:10:50.072Z,1135.73
2016-07-03T14:11:50.079Z,1137.03
2016-07-03T14:12:50.072Z,1137.95
2016-07-03T14:13:50.066Z,1139.06
2016-07-03T14:14:50.069Z,1139.92
2016-07-03T14:15:50.066Z,1140.48
2016-07-03T14:16:50.143Z,1140.89
2016-07-03T14:17:50.078Z,1141.48
2016-07-03T14:18:50.083Z,1141.87
2016-07-03T14:19:50.072Z,1142.46
2016-07-03T14:20:50.073Z,1142.84
2016-07-03T14:21:50.079Z,1143.38
2016-07-03T14:22:50.086Z,1144.02
2016-07-03T14:23:50.072Z,1144.41
2016-07-03T14:24:50.107Z,1144.77
2016-07-03T14:25:50.087Z,1145.15
2016-07-03T14:26:50.077Z,1145.29
2016-07-03T14:27:50.129Z,1145.48
2016-07-03T14:28:50.068Z,1145.82
2016-07-03T14:29:50.084Z,1146.07
2016-07-03T14:30:50.073Z,1146.2
2016-07-03T14:31:50.256Z,1146.23
2016-07-03T14:32:50.070Z,1146.3
2016-07-03T14:33:50.228Z,1146.5
2016-07-03T14:34:50.075Z,1146.9
2016-07-03T14:35:50.077Z,1146.85
2016-07-03T14:36:50.083Z,1146.75
2016-07-03T14:37:50.107Z,1147.09
2016-07-03T14:38:50.103Z,1147.14
2016-07-03T14:39:50.092Z,1147.12
2016-07-03T14:40:50.106Z,1146.96
2016-07-03T14:41:50.089Z,1146.75
2016-07-03T14:42:50.108Z,1146.62
2016-07-03T14:43:50.101Z,1147.05
2016-07-03T14:44:50.131Z,1146.88
2016-07-03T14:45:50.101Z,1146.74
2016-07-03T14:46:50.101Z,1146.82
2016-07-03T14:47:50.110Z,1146.57
2016-07-03T14:48:50.115Z,1146.31
2016-07-03T14:49:50.122Z,1145.95
2016-07-03T14:50:50.126Z,1145.54
2016-07-03T14:51:50.099Z,1145.15
2016-07-03T14:52:50.098Z,1145.02
2016-07-03T14:53:50.103Z,1144.92
2016-07-03T14:54:50.109Z,1145.2
2016-07-03T14:55:50.108Z,1145.07
2016-07-03T14:56:50.103Z,1144.96
2016-07-03T14:57:50.108Z,1144.9
2016-07-03T14:58:50.113Z,1144.92
2016-07-03T14:59:50.130Z,1144.83
2016-07-03T15:00:50.135Z,1144.51
2016-07-03T15:01:50.162Z,1144.49
2016-07-03T15:02:50.503Z,1144.3
2016-07-03T15:03:50.109Z,1144.11
2016-07-03T15:04:50.113Z,1143.83
2016-07-03T15:05:50.122Z,1143.92
2016-07-03T15:06:50.148Z,1143.92
2016-07-03T15:07:50.100Z,1143.9
2016-07-03T15:08:50.135Z,1144.01
2016-07-03T15:09:50.128Z,1144.01
2016-07-03T15:10:50.202Z,1144.09
2016-07-03T15:11:50.127Z,1144.03
2016-07-03T15:12:50.164Z,1144.17
2016-07-03T15:13:50.123Z,1144.03
2016-07-03T15:14:50.167Z,1143.65
2016-07-03T15:15:50.127Z,1143.09
2016-07-03T15:16:50.175Z,1142.65
2016-07-03T15:17:50.139Z,1141.87
2016-07-03T15:18:50.144Z,1140.93
2016-07-03T15:19:50.140Z,1140
2016-07-03T15:20:50.123Z,1140.03
2016-07-03T15:21:50.111Z,1140.48
2016-07-03T15:22:50.125Z,1141.24
2016-07-03T15:23:50.130Z,1141.82
2016-07-03T15:24:50.146Z,1141.76
2016-07-03T15:25:50.193Z,1141.25
2016-07-03T15:26:50.185Z,1140.55
2016-07-03T15:27:50.124Z,1139.76
2016-07-03T15:28:50.182Z,1139.16
2016-07-03T15:29:50.163Z,1138.85
2016-07-03T15:30:50.159Z,1139
2016-07-03T15:31:50.136Z,1138.84
2016-07-03T15:32:50.134Z,1138.49
2016-07-03T15:33:50.136Z,1138.06
2016-07-03T15:34:50.159Z,1137.09
2016-07-03T15:35:50.147Z,1136.25
2016-07-03T15:36:50.134Z,1135.65
2016-07-03T15:37:50.128Z,1135.98
2016-07-03T15:38:50.242Z,1136.54
2016-07-03T15:39:50.189Z,1136.62
2016-07-03T15:40:50.160Z,1135.56
2016-07-03T15:41:50.168Z,1134.37
2016-07-03T15:42:50.169Z,1132.43
2016-07-03T15:43:50.149Z,1130.27
2016-07-03T15:44:50.147Z,1128.54
2016-07-03T15:45:50.163Z,1126.99
2016-07-03T15:46:50.156Z,1125.6
2016-07-03T15:47:50.147Z,1122.9
2016-07-03T15:48:50.168Z,1120.27
2016-07-03T15:49:50.173Z,1118.91
2016-07-03T15:50:50.156Z,1118.8
2016-07-03T15:51:50.164Z,1119.36
2016-07-03T15:52:50.196Z,1120.35
2016-07-03T15:53:50.149Z,1121.53
2016-07-03T15:54:50.177Z,1122.33
2016-07-03T15:55:50.156Z,1121.87
2016-07-03T15:56:50.162Z,1120.99
2016-07-03T15:57:50.157Z,1120.24
2016-07-03T15:58:50.171Z,1120.31
2016-07-03T15:59:50.188Z,1120.67
2016-07-03T16:00:50.162Z,1121.33
2016-07-03T16:01:50.281Z,1121.88
2016-07-03T16:02:50.157Z,1122.51
2016-07-03T16:03:50.178Z,1123.31
2016-07-03T16:04:50.171Z,1124.36
2016-07-03T16:05:50.205Z,1125.63
2016-07-03T16:06:50.163Z,1127.13
2016-07-03T16:07:50.340Z,1128.65
2016-07-03T16:08:51.134Z,1129.96
2016-07-03T16:09:50.319Z,1131.6
2016-07-03T16:10:50.468Z,1133.13
2016-07-03T16:11:50.302Z,1134.98
2016-07-03T16:12:50.192Z,1136.49
2016-07-03T16:13:50.201Z,1138.13
2016-07-03T16:14:50.179Z,1139.68
2016-07-03T16:15:50.208Z,1141.19
2016-07-03T16:16:50.248Z,1142.65
2016-07-03T16:17:50.226Z,1143.6
2016-07-03T16:18:50.275Z,1145.06
2016-07-03T16:19:50.206Z,1146.3
2016-07-03T16:20:50.166Z,1147.34
2016-07-03T16:21:50.199Z,1148.68
2016-07-03T16:22:50.270Z,1150.08
2016-07-03T16:23:50.250Z,1151.47
2016-07-03T16:24:50.290Z,1152.75
2016-07-03T16:25:50.257Z,1154.05
2016-07-03T16:26:50.320Z,1155.28
2016-07-03T16:27:50.227Z,1155.94
2016-07-03T16:28:50.229Z,1156.53
2016-07-03T16:29:50.214Z,1157
2016-07-03T16:30:50.197Z,1157.45
2016-07-03T16:31:50.266Z,1158.08
2016-07-03T16:32:50.249Z,1158.7
2016-07-03T16:33:50.233Z,1159.41
2016-07-03T16:34:50.200Z,1160.06
2016-07-03T16:35:50.202Z,1160.78
2016-07-03T16:36:50.262Z,1161.44
2016-07-03T16:37:50.265Z,1162.16
2016-07-03T16:38:50.200Z,1162.74
2016-07-03T16:39:50.210Z,1163.23
2016-07-03T16:40:50.201Z,1163.7
2016-07-03T16:41:50.205Z,1164.06
2016-07-03T16:42:50.197Z,1164.22
2016-07-03T16:43:50.220Z,1164.54
2016-07-03T16:44:50.347Z,1164.61
2016-07-03T16:45:50.267Z,1164.6
2016-07-03T16:46:50.210Z,1164.52
2016-07-03T16:47:50.205Z,1164.48
2016-07-03T16:48:50.212Z,1164.3
2016-07-03T16:49:50.230Z,1164.19
2016-07-03T16:50:50.203Z,1164.04
2016-07-03T16:51:50.202Z,1163.89
2016-07-03T16:52:50.231Z,1163.66
2016-07-03T16:53:50.266Z,1163.46
2016-07-03T16:54:50.268Z,1163.31
2016-07-03T16:55:50.237Z,1163.17
2016-07-03T16:56:50.219Z,1163.13
2016-07-03T16:57:50.217Z,1163.04
2016-07-03T16:58:50.237Z,1163.06
2016-07-03T16:59:50.210Z,1163.18
2016-07-03T17:00:50.214Z,1163.24
2016-07-03T17:01:50.222Z,1163.36
2016-07-03T17:02:50.228Z,1163.54
2016-07-03T17:03:50.226Z,1163.73
2016-07-03T17:04:50.238Z,1163.83
2016-07-03T17:05:50.236Z,1163.99
2016-07-03T17:06:51.430Z,1164.07
2016-07-03T17:07:50.327Z,1164.15
2016-07-03T17:08:50.234Z,1164.15
2016-07-03T17:09:50.224Z,1164.2
2016-07-03T17:10:50.232Z,1164.19
2016-07-03T17:11:50.231Z,1164.17
2016-07-03T17:12:50.250Z,1164.15
2016-07-03T17:13:50.228Z,1164.14
2016-07-03T17:14:50.240Z,1164.14
2016-07-03T17:15:50.216Z,1164.07
2016-07-03T17:16:50.227Z,1164.05
2016-07-03T17:17:50.237Z,1164.09
2016-07-03T17:18:50.233Z,1164.12
2016-07-03T17:19:50.232Z,1164.13
2016-07-03T17:20:50.437Z,1164.11
2016-07-03T17:21:50.370Z,1164.15
2016-07-03T17:22:50.661Z,1164.12
2016-07-03T17:23:50.576Z,1164.19
2016-07-03T17:24:50.253Z,1164.2
2016-07-03T17:25:50.260Z,1164.28
2016-07-03T17:26:50.259Z,1164.28
2016-07-03T17:27:50.467Z,1164.25
2016-07-03T17:28:50.244Z,1164.18
2016-07-03T17:29:50.336Z,1164.12
2016-07-03T17:30:50.253Z,1164
2016-07-03T17:31:50.251Z,1163.84
2016-07-03T17:32:50.294Z,1163.67
2016-07-03T17:33:50.278Z,1163.42
2016-07-03T17:34:50.264Z,1163.22
2016-07-03T17:35:50.257Z,1163.01
2016-07-03T17:36:50.272Z,1162.93
2016-07-03T17:37:50.252Z,1162.9
2016-07-03T17:38:50.259Z,1162.84
2016-07-03T17:39:50.240Z,1162.77
2016-07-03T17:40:50.245Z,1162.79
2016-07-03T17:41:50.276Z,1162.87
2016-07-03T17:42:50.317Z,1163.01
2016-07-03T17:43:51.896Z,1163.24
2016-07-03T17:44:50.246Z,1163.42
2016-07-03T17:45:50.247Z,1163.6
2016-07-03T17:46:50.290Z,1163.82
2016-07-03T17:47:50.249Z,1163.99
2016-07-03T17:48:50.254Z,1164.12
2016-07-03T17:49:50.253Z,1164.23
2016-07-03T17:50:50.260Z,1164.3
2016-07-03T17:51:50.252Z,1164.42
2016-07-03T17:52:50.257Z,1164.41
2016-07-03T17:53:50.278Z,1164.4
2016-07-03T17:54:50.262Z,1164.4
2016-07-03T17:55:50.370Z,1164.41
2016-07-03T17:56:50.462Z,1164.39
2016-07-03T17:57:50.322Z,1164.29
2016-07-03T17:58:50.320Z,1164.34
2016-07-03T17:59:50.354Z,1164.17
2016-07-03T18:00:50.346Z,1164.04
2016-07-03T18:01:50.396Z,1163.89
2016-07-03T18:02:51.370Z,1163.66
2016-07-03T18:03:50.375Z,1163.51
2016-07-03T18:04:50.353Z,1163.26
2016-07-03T18:05:50.294Z,1162.96
2016-07-03T18:06:50.298Z,1162.73
2016-07-03T18:07:50.306Z,1162.44
2016-07-03T18:08:50.292Z,1162.31
2016-07-03T18:09:50.338Z,1162.07
2016-07-03T18:10:50.402Z,1161.85
2016-07-03T18:11:50.299Z,1161.57
2016-07-03T18:12:50.331Z,1161.48
2016-07-03T18:13:50.342Z,1161.35
2016-07-03T18:14:50.323Z,1161.23
2016-07-03T18:15:50.315Z,1161.27
2016-07-03T18:16:50.341Z,1161.09
2016-07-03T18:17:50.347Z,1160.99
2016-07-03T18:18:50.343Z,1160.93
2016-07-03T18:19:50.311Z,1160.92
2016-07-03T18:20:50.289Z,1160.7
2016-07-03T18:21:50.306Z,1160.61
2016-07-03T18:22:50.283Z,1160.23
2016-07-03T18:23:50.314Z,1159.87
2016-07-03T18:24:50.293Z,1159.52
2016-07-03T18:25:50.303Z,1159.24
2016-07-03T18:26:50.336Z,1158.97
2016-07-03T18:27:50.359Z,1158.68
2016-07-03T18:28:50.338Z,1158.41
2016-07-03T18:29:50.356Z,1158.21
2016-07-03T18:30:50.481Z,1157.91
2016-07-03T18:31:50.339Z,1157.59
2016-07-03T18:32:50.355Z,1157.01
2016-07-03T18:33:50.302Z,1156.58
2016-07-03T18:34:50.295Z,1155.96
2016-07-03T18:35:50.309Z,1155.61
2016-07-03T18:36:50.306Z,1155.44
2016-07-03T18:37:50.317Z,1155.32
2016-07-03T18:38:50.440Z,1155.54
2016-07-03T18:39:50.318Z,1155.82
2016-07-03T18:40:50.412Z,1156.2
2016-07-03T18:41:50.332Z,1156.81
2016-07-03T18:42:50.352Z,1157.71
2016-07-03T18:43:50.436Z,1158.63
2016-07-03T18:44:50.371Z,1159.41
2016-07-03T18:45:50.395Z,1160.2
2016-07-03T18:46:50.336Z,1160.64
2016-07-03T18:47:50.316Z,1161.02
2016-07-03T18:48:50.388Z,1161.3
2016-07-03T18:49:50.317Z,1161.38
2016-07-03T18:50:50.327Z,1161.63
2016-07-03T18:51:50.407Z,1161.76
2016-07-03T18:52:50.374Z,1161.8
2016-07-03T18:53:50.445Z,1161.79
2016-07-03T18:54:50.410Z,1161.78
2016-07-03T18:55:50.330Z,1161.73
2016-07-03T18:56:50.345Z,1161.58
2016-07-03T18:57:50.325Z,1161.49
2016-07-03T18:58:50.528Z,1161.31
2016-07-03T18:59:50.394Z,1161.14
2016-07-03T19:00:50.399Z,1160.89
2016-07-03T19:01:50.425Z,1160.77
2016-07-03T19:02:50.434Z,1160.5
2016-07-03T19:03:50.327Z,1160.19
2016-07-03T19:04:50.355Z,1159.94
2016-07-03T19:05:50.335Z,1159.77
2016-07-03T19:06:50.525Z,1159.57
2016-07-03T19:07:50.464Z,1159.35
2016-07-03T19:08:50.477Z,1159.08
2016-07-03T19:09:51.333Z,1158.75
2016-07-03T19:10:50.340Z,1158.49
2016-07-03T19:11:50.353Z,1158.14
2016-07-03T19:12:50.348Z,1157.78
2016-07-03T19:13:50.665Z,1157.3
2016-07-03T19:14:50.402Z,1156.81
2016-07-03T19:15:50.422Z,1156.27
2016-07-03T19:16:50.376Z,1155.89
2016-07-03T19:17:50.336Z,1155.42
2016-07-03T19:18:50.349Z,1154.93
2016-07-03T19:19:50.364Z,1154.3
2016-07-03T19:20:50.355Z,1153.67
2016-07-03T19:21:50.384Z,1153.08
2016-07-03T19:22:50.376Z,1152.59
2016-07-03T19:23:50.363Z,1151.97
2016-07-03T19:24:50.397Z,1151.37
2016-07-03T19:25:50.356Z,1150.68
2016-07-03T19:26:50.390Z,1150.02
2016-07-03T19:27:50.355Z,1149.59
2016-07-03T19:28:50.354Z,1148.94
2016-07-03T19:29:50.451Z,1148.3
2016-07-03T19:30:50.382Z,1147.62
2016-07-03T19:31:50.391Z,1146.98
2016-07-03T19:32:50.449Z,1146.06
2016-07-03T19:33:50.364Z,1145.46
2016-07-03T19:34:50.399Z,1144.64
2016-07-03T19:35:50.353Z,1143.76
2016-07-03T19:36:50.388Z,1143.21
2016-07-03T19:37:50.429Z,1142.36
2016-07-03T19:38:50.422Z,1141.75
2016-07-03T19:39:50.563Z,1141.15
2016-07-03T19:40:50.480Z,1140.48
2016-07-03T19:41:50.362Z,1139.8
2016-07-03T19:42:50.487Z,1139.23
2016-07-03T19:43:50.361Z,1138.88
2016-07-03T19:44:50.373Z,1138.41
2016-07-03T19:45:50.391Z,1137.98
2016-07-03T19:46:50.389Z,1137.42
2016-07-03T19:47:50.432Z,1136.91
2016-07-03T19:48:50.399Z,1136.31
2016-07-03T19:49:50.382Z,1135.68
2016-07-03T19:50:50.518Z,1135.13
2016-07-03T19:51:50.454Z,1134.53
2016-07-03T19:52:50.925Z,1133.84
2016-07-03T19:53:50.415Z,1133.16
2016-07-03T19:54:50.399Z,1132.45
2016-07-03T19:55:50.365Z,1131.69
2016-07-03T19:56:50.405Z,1130.87
2016-07-03T19:57:50.397Z,1130.01
2016-07-03T19:58:50.385Z,1129.15
2016-07-03T19:59:50.376Z,1128.5
2016-07-03T20:00:50.398Z,1127.56
2016-07-03T20:01:50.422Z,1126.79
2016-07-03T20:02:50.438Z,1125.98
2016-07-03T20:03:50.379Z,1125
2016-07-03T20:04:50.396Z,1124.15
2016-07-03T20:05:50.411Z,1123.14
2016-07-03T20:06:50.525Z,1122.28
2016-07-03T20:07:50.392Z,1121.48
2016-07-03T20:08:50.445Z,1120.68
2016-07-03T20:09:50.448Z,1119.65
2016-07-03T20:10:50.400Z,1118.74
2016-07-03T20:11:50.436Z,1117.66
2016-07-03T20:12:50.735Z,1116.97
2016-07-03T20:13:50.494Z,1115.9
2016-07-03T20:14:51.120Z,1114.93
2016-07-03T20:15:50.406Z,1114.13
2016-07-03T20:16:50.424Z,1113.15
2016-07-03T20:17:51.112Z,1112.17
2016-07-03T20:18:50.455Z,1111.45
2016-07-03T20:19:50.405Z,1110.47
2016-07-03T20:20:50.403Z,1109.48
2016-07-03T20:21:50.424Z,1108.5
2016-07-03T20:22:50.407Z,1108.03
2016-07-03T20:23:50.396Z,1107.45
2016-07-03T20:24:50.401Z,1106.77
2016-07-03T20:25:50.397Z,1105.92
2016-07-03T20:26:50.460Z,1105.62
2016-07-03T20:27:50.396Z,1105.19
2016-07-03T20:28:50.401Z,1104.77
2016-07-03T20:29:50.412Z,1104.3
2016-07-03T20:30:50.416Z,1103.62
2016-07-03T20:31:50.440Z,1103.14
2016-07-03T20:32:50.408Z,1102.66
2016-07-03T20:33:50.408Z,1102.07
2016-07-03T20:34:50.425Z,1101.84
2016-07-03T20:35:50.502Z,1100.6
2016-07-03T20:36:50.563Z,1100.41
2016-07-03T20:37:50.431Z,1099.95
2016-07-03T20:38:50.451Z,1099.77
2016-07-03T20:39:50.437Z,1099.15
2016-07-03T20:40:50.419Z,1098.58
2016-07-03T20:41:50.432Z,1098.03
2016-07-03T20:42:50.521Z,1097.65
2016-07-03T20:43:50.450Z,1097.2
2016-07-03T20:44:50.445Z,1096.82
2016-07-03T20:45:50.475Z,1096.54
2016-07-03T20:46:50.425Z,1095.96
2016-07-03T20:47:50.428Z,1095.51
2016-07-03T20:48:52.693Z,1095.1
2016-07-03T20:49:50.678Z,1094.76
2016-07-03T20:50:50.507Z,1094.18
2016-07-03T20:51:50.425Z,1093.71
2016-07-03T20:52:50.456Z,1093.28
2016-07-03T20:53:50.432Z,1092.87
2016-07-03T20:54:50.454Z,1092.69
2016-07-03T20:55:50.438Z,1092.47
2016-07-03T20:56:50.429Z,1092.26
2016-07-03T20:57:50.438Z,1091.94
2016-07-03T20:58:50.435Z,1091.73
2016-07-03T20:59:50.430Z,1091.16
2016-07-03T21:00:50.516Z,1090.96
2016-07-03T21:01:50.507Z,1090.58
2016-07-03T21:02:50.654Z,1090.52
2016-07-03T21:03:50.500Z,1090.21
2016-07-03T21:04:50.556Z,1089.98
2016-07-03T21:05:50.510Z,1089.88
2016-07-03T21:06:50.541Z,1089.5
2016-07-03T21:07:50.476Z,1089.43
2016-07-03T21:08:50.486Z,1089.29
2016-07-03T21:09:50.554Z,1089.32
2016-07-03T21:10:50.602Z,1089.08
2016-07-03T21:11:50.563Z,1088.79
2016-07-03T21:12:50.513Z,1088.78
2016-07-03T21:14:03.055Z,1088.46
2016-07-03T21:15:03.018Z,1088.51
2016-07-03T21:16:03.015Z,1088.36
2016-07-03T21:17:03.036Z,1087.96
2016-07-03T21:18:03.031Z,1087.69
2016-07-03T21:19:03.033Z,1087.46
2016-07-03T21:20:03.085Z,1087.2
2016-07-03T21:21:03.052Z,1086.95
2016-07-03T21:22:03.022Z,1086.79
2016-07-03T21:23:03.027Z,1086.34
2016-07-03T21:24:03.181Z,1086.02
2016-07-03T21:25:03.036Z,1086.14
2016-07-03T21:26:03.042Z,1085.77
2016-07-03T21:27:03.043Z,1085.45
2016-07-03T21:28:03.024Z,1085.55
2016-07-03T21:29:03.223Z,1085.34
2016-07-03T21:30:03.123Z,1085.17
2016-07-03T21:31:03.130Z,1084.75
2016-07-03T21:32:03.180Z,1084.4
2016-07-03T21:33:03.050Z,1084.16
2016-07-03T21:34:03.089Z,1084.02
2016-07-03T21:35:03.118Z,1083.52
2016-07-03T21:36:03.159Z,1083.05
2016-07-03T21:37:03.368Z,1082.59
2016-07-03T21:38:03.126Z,1081.76
2016-07-03T21:39:03.048Z,1081.76
2016-07-03T21:40:03.125Z,1081.41
2016-07-03T21:41:03.187Z,1081.35
2016-07-03T21:42:03.064Z,1080.49
2016-07-03T21:43:03.299Z,1079.93
2016-07-03T21:44:03.062Z,1079.51
2016-07-03T21:45:03.216Z,1079.21
2016-07-03T21:46:03.038Z,1078.66
2016-07-03T21:47:03.027Z,1078.37
2016-07-03T21:48:03.246Z,1077.92
2016-07-03T21:49:03.036Z,1077.75
2016-07-03T21:50:03.037Z,1077.25
2016-07-03T21:51:03.052Z,1077.13
2016-07-03T21:52:03.049Z,1076.63
2016-07-03T21:53:03.029Z,1076.58
2016-07-03T21:54:03.054Z,1075.96
2016-07-03T21:55:03.057Z,1076.18
2016-07-03T21:56:03.031Z,1075.75
2016-07-03T21:57:03.056Z,1075.7
2016-07-03T21:58:03.052Z,1075.39
2016-07-03T21:59:03.046Z,1075.19
2016-07-03T22:00:03.050Z,1075.27
2016-07-03T22:01:03.044Z,1074.87
2016-07-03T22:03:03.081Z,1074.89
2016-07-03T22:04:03.087Z,1074.89
2016-07-03T22:05:03.058Z,1074.86
2016-07-03T22:06:03.042Z,1074.41
2016-07-03T22:07:03.043Z,1073.98
2016-07-03T22:08:03.069Z,1073.6
2016-07-03T22:09:03.065Z,1073.51
2016-07-03T22:10:03.101Z,1073.28
2016-07-03T22:11:03.046Z,1072.74
2016-07-03T22:12:03.059Z,1072.1
2016-07-03T22:13:03.058Z,1072.2
2016-07-03T22:14:03.052Z,1071.64
2016-07-03T22:15:03.095Z,1071.18
2016-07-03T22:16:03.043Z,1070.66
2016-07-03T22:17:03.159Z,1070.35
2016-07-03T22:18:03.047Z,1070.17
2016-07-03T22:19:03.054Z,1069.65
2016-07-03T22:20:03.065Z,1069.09
2016-07-03T22:21:03.144Z,1068.59
2016-07-03T22:22:03.058Z,1068.44
2016-07-03T22:23:03.059Z,1067.94
2016-07-03T22:24:03.047Z,1067.58
2016-07-03T22:25:03.090Z,1067.17
2016-07-03T22:26:03.088Z,1066.64